Huvudsida
METAR-TAF:

METAR-TAF

Flygplatser :

Moss flygplats. Rygge

Rygge, Norge

latitud: 59-23N, longitud: 010-47E, höjd: 5 m

Aktuellt väderrapport

Denna rapport gjordes för 10 minuter sedan, klockan 00:20 UTC
Vind 3 kt från nord/nordväst
Temperatur 6°C
Fuktighet 100%
Tryck 1006 hPa
Sikt: 0650 m
duggregn

METAR: ENRY 190020Z AUTO 33003KT 0650NDV R12/P2000D R30/P2000N DZ FEW000/// BKN009/// BKN011/// 06/06 Q1006

Tid: 01:30 (00:30 UTC)

Väderprognos

Prognos gäller från 19 kl. 00 UTC till 19 kl. 24 UTC
Vind 5 kt varierande vindriktning
Sikt 10 km eller mer
Spridda moln på en höjd av 400 ft
Brutna moln på en höjd av 1200 ft
lätt regn
Temporärt
från 19 kl. 00 UTC till 19 kl. 09 UTC
Sikt: 1200 m
Mulet på en höjd av 400 ft
regn, duggregn, fuktdis
Blir
från 19 kl. 08 UTC till 19 kl. 10 UTC
Vind 10 kt från syd
Få moln på en höjd av 500 ft
Brutna moln på en höjd av 2000 ft

TAF: ENRY 1900/1924 VRB05KT 9999 -RA SCT004 BKN012 TEMPO 1900/1909 1200 RADZ BR OVC004 BECMG 1908/1910 18010KT FEW005 BKN020

Aktuella väderrapporter och prognoser från 4000 flygplatser (METAR- och TAF-rapporter).

De tillgängliga stationerna syns som gula och röda prickar på kartan.

För musen över prickarna för att se namnen på stationerna.

Klicka sedan för att få väderrapporter och prognoser.

För att ändra kartan: Klicka på de gröna knapparna med ett svart kors på för att zooma in; den gröna knappen med ett streck på för att zooma ut; eller på de gröna pilarna för angränsande kartor.


METAR-TAF: